createdAt,value
2018-03-07T00:00:13.733Z,98520.05
2018-03-07T00:02:39.770Z,98519.12
2018-03-07T00:05:05.865Z,98521.16
2018-03-07T00:07:31.885Z,98523.71
2018-03-07T00:09:58.087Z,98521.84
2018-03-07T00:12:24.191Z,98520.55
2018-03-07T00:14:50.329Z,98526.69
2018-03-07T00:17:16.400Z,98520.63
2018-03-07T00:19:42.612Z,98524.90
2018-03-07T00:22:08.658Z,98525.72
2018-03-07T00:24:34.761Z,98526.97
2018-03-07T00:27:00.869Z,98519.66
2018-03-07T00:29:26.902Z,98523.09
2018-03-07T00:31:53.048Z,98517.06
2018-03-07T00:34:19.103Z,98519.22
2018-03-07T00:36:45.248Z,98520.19
2018-03-07T00:39:11.293Z,98521.95
2018-03-07T00:41:37.340Z,98518.90
2018-03-07T00:44:03.556Z,98519.91
2018-03-07T00:46:29.592Z,98518.98
2018-03-07T00:48:56.033Z,98519.44
2018-03-07T00:51:22.040Z,98517.25
2018-03-07T00:53:48.103Z,98515.92
2018-03-07T00:56:14.167Z,98515.56
2018-03-07T00:58:40.274Z,98511.62
2018-03-07T01:01:06.500Z,98513.19
2018-03-07T01:03:32.710Z,98516.13
2018-03-07T01:05:58.765Z,98514.02
2018-03-07T01:08:24.847Z,98507.41
2018-03-07T01:10:50.915Z,98513.36
2018-03-07T01:13:17.035Z,98506.58
2018-03-07T01:15:43.085Z,98513.00
2018-03-07T01:18:09.174Z,98513.25
2018-03-07T01:20:35.411Z,98508.94
2018-03-07T01:23:01.479Z,98509.34
2018-03-07T01:25:27.725Z,98508.12
2018-03-07T01:27:53.796Z,98508.98
2018-03-07T01:30:19.866Z,98507.25
2018-03-07T01:32:45.951Z,98504.59
2018-03-07T01:35:12.034Z,98504.12
2018-03-07T01:37:38.096Z,98505.38
2018-03-07T01:40:04.177Z,98499.89
2018-03-07T01:42:30.249Z,98502.80
2018-03-07T01:44:56.312Z,98505.34
2018-03-07T01:47:22.546Z,98502.30
2018-03-07T01:49:48.616Z,98501.89
2018-03-07T01:52:14.656Z,98501.00
2018-03-07T01:54:40.702Z,98498.38
2018-03-07T01:57:06.779Z,98494.42
2018-03-07T01:59:33.047Z,98492.73
2018-03-07T02:01:59.107Z,98490.62
2018-03-07T02:04:25.156Z,98489.80
2018-03-07T02:06:51.186Z,98492.96
2018-03-07T02:09:17.282Z,98490.92
2018-03-07T02:11:43.335Z,98494.30
2018-03-07T02:14:09.398Z,98494.29
2018-03-07T02:16:35.486Z,98489.12
2018-03-07T02:19:01.533Z,98487.83
2018-03-07T02:21:27.671Z,98488.69
2018-03-07T02:23:53.874Z,98488.27
2018-03-07T02:26:19.979Z,98490.02
2018-03-07T02:28:46.026Z,98486.11
2018-03-07T02:31:12.210Z,98484.30
2018-03-07T02:33:38.290Z,98485.60
2018-03-07T02:36:04.323Z,98481.72
2018-03-07T02:38:30.368Z,98484.31
2018-03-07T02:40:56.462Z,98483.17
2018-03-07T02:43:22.581Z,98481.37
2018-03-07T02:45:48.611Z,98479.68
2018-03-07T02:48:14.633Z,98484.11
2018-03-07T02:50:40.668Z,98482.81
2018-03-07T02:53:06.700Z,98480.70
2018-03-07T02:55:32.830Z,98477.75
2018-03-07T02:57:58.911Z,98479.88
2018-03-07T03:00:25.037Z,98478.27
2018-03-07T03:02:51.087Z,98477.98
2018-03-07T03:05:17.155Z,98474.14
2018-03-07T03:07:43.237Z,98478.45
2018-03-07T03:10:09.265Z,98477.66
2018-03-07T03:12:35.429Z,98479.89
2018-03-07T03:15:01.495Z,98476.13
2018-03-07T03:17:27.817Z,98474.47
2018-03-07T03:19:53.912Z,98473.76
2018-03-07T03:22:20.001Z,98470.89
2018-03-07T03:24:46.063Z,98475.23
2018-03-07T03:27:12.103Z,98480.44
2018-03-07T03:29:38.618Z,98478.75
2018-03-07T03:32:04.701Z,98479.68
2018-03-07T03:34:30.838Z,98477.09
2018-03-07T03:36:56.919Z,98486.43
2018-03-07T03:39:22.940Z,98481.62
2018-03-07T03:41:49.227Z,98476.41
2018-03-07T03:44:15.289Z,98482.05
2018-03-07T03:46:41.602Z,98481.73
2018-03-07T03:49:07.637Z,98480.55
2018-03-07T03:51:33.800Z,98483.16
2018-03-07T03:53:59.852Z,98478.89
2018-03-07T03:56:26.542Z,98481.16
2018-03-07T03:58:52.625Z,98489.33
2018-03-07T04:01:18.690Z,98484.73
2018-03-07T04:03:44.732Z,98482.58
2018-03-07T04:06:11.008Z,98488.72
2018-03-07T04:08:37.075Z,98490.50
2018-03-07T04:11:03.136Z,98492.16
2018-03-07T04:13:29.176Z,98493.02
2018-03-07T04:15:55.249Z,98489.18
2018-03-07T04:18:21.295Z,98496.96
2018-03-07T04:20:47.354Z,98488.86
2018-03-07T04:23:13.399Z,98485.45
2018-03-07T04:25:39.770Z,98489.67
2018-03-07T04:28:05.824Z,98492.19
2018-03-07T04:30:31.858Z,98496.89
2018-03-07T04:32:58.106Z,98498.65
2018-03-07T04:35:24.127Z,98496.53
2018-03-07T04:37:50.357Z,98495.74
2018-03-07T04:40:16.438Z,98499.22
2018-03-07T04:42:42.514Z,98500.47
2018-03-07T04:45:08.565Z,98496.60
2018-03-07T04:47:34.598Z,98503.52
2018-03-07T04:50:00.669Z,98501.83
2018-03-07T04:52:26.715Z,98501.80
2018-03-07T04:54:52.761Z,98509.84
2018-03-07T04:57:18.771Z,98507.66
2018-03-07T04:59:45.104Z,98506.76
2018-03-07T05:02:11.174Z,98508.81
2018-03-07T05:04:37.194Z,98507.87
2018-03-07T05:07:03.393Z,98504.97
2018-03-07T05:09:29.571Z,98512.82
2018-03-07T05:11:55.650Z,98510.99
2018-03-07T05:14:21.724Z,98512.97
2018-03-07T05:16:47.833Z,98514.27
2018-03-07T05:19:13.936Z,98515.16
2018-03-07T05:21:39.990Z,98516.59
2018-03-07T05:24:06.030Z,98514.08
2018-03-07T05:26:32.104Z,98509.77
2018-03-07T05:28:58.220Z,98510.34
2018-03-07T05:31:24.271Z,98508.16
2018-03-07T05:33:50.480Z,98508.98
2018-03-07T05:36:16.581Z,98509.38
2018-03-07T05:38:42.595Z,98512.85
2018-03-07T05:41:08.817Z,98511.49
2018-03-07T05:43:34.849Z,98516.80
2018-03-07T05:46:01.281Z,98514.22
2018-03-07T05:48:27.500Z,98509.58
2018-03-07T05:50:53.608Z,98509.22
2018-03-07T05:53:19.998Z,98511.87
2018-03-07T05:55:46.085Z,98512.80
2018-03-07T05:58:12.195Z,98508.45
2018-03-07T06:00:39.208Z,98514.05
2018-03-07T06:03:05.325Z,98516.56
2018-03-07T06:05:31.485Z,98526.10
2018-03-07T06:07:58.058Z,98521.63
2018-03-07T06:10:24.245Z,98533.69
2018-03-07T06:12:50.391Z,98533.22
2018-03-07T06:15:16.482Z,98529.70
2018-03-07T06:17:42.547Z,98527.59
2018-03-07T06:20:08.638Z,98532.75
2018-03-07T06:22:34.738Z,98539.14
2018-03-07T06:25:01.437Z,98541.59
2018-03-07T06:27:27.515Z,98539.01
2018-03-07T06:29:54.168Z,98551.09
2018-03-07T06:32:20.764Z,98548.88
2018-03-07T06:34:46.792Z,98551.48
2018-03-07T06:37:12.830Z,98547.69
2018-03-07T06:39:39.067Z,98553.78
2018-03-07T06:42:05.134Z,98550.41
2018-03-07T06:51:15.314Z,98553.64
2018-03-07T06:53:41.538Z,98561.69
2018-03-07T06:56:07.601Z,98556.95
2018-03-07T06:58:33.960Z,98562.58
2018-03-07T07:01:00.063Z,98563.51
2018-03-07T07:03:26.090Z,98567.31
2018-03-07T07:05:52.180Z,98566.45
2018-03-07T07:08:18.275Z,98573.31
2018-03-07T07:10:44.552Z,98577.65
2018-03-07T07:13:10.629Z,98579.34
2018-03-07T07:15:36.692Z,98577.98
2018-03-07T07:18:03.096Z,98588.28
2018-03-07T07:20:29.123Z,98584.80
2018-03-07T07:22:55.226Z,98588.11
2018-03-07T07:25:21.314Z,98590.70
2018-03-07T07:27:47.387Z,98591.55
2018-03-07T07:30:13.423Z,98597.22
2018-03-07T07:32:39.492Z,98592.91
2018-03-07T07:35:05.615Z,98601.45
2018-03-07T07:37:31.830Z,98597.91
2018-03-07T07:39:57.804Z,98608.22
2018-03-07T07:42:23.914Z,98599.60
2018-03-07T07:44:50.012Z,98607.78
2018-03-07T07:47:16.122Z,98614.77
2018-03-07T07:49:42.184Z,98615.50
2018-03-07T07:52:08.267Z,98617.23
2018-03-07T07:54:34.415Z,98618.48
2018-03-07T07:57:00.508Z,98618.05
2018-03-07T07:59:26.596Z,98615.90
2018-03-07T08:01:52.884Z,98622.66
2018-03-07T08:04:19.031Z,98615.30
2018-03-07T08:06:45.092Z,98623.05
2018-03-07T08:09:11.115Z,98616.95
2018-03-07T08:11:37.207Z,98619.54
2018-03-07T08:14:03.640Z,98624.64
2018-03-07T08:16:29.695Z,98629.37
2018-03-07T08:18:55.762Z,98617.31
2018-03-07T08:21:21.872Z,98620.30
2018-03-07T08:23:47.944Z,98618.94
2018-03-07T08:26:14.141Z,98627.52
2018-03-07T08:28:41.161Z,98624.47
2018-03-07T08:31:07.198Z,98624.23
2018-03-07T08:33:33.265Z,98629.73
2018-03-07T08:35:59.329Z,98628.69
2018-03-07T08:38:25.572Z,98630.73
2018-03-07T08:40:51.646Z,98628.59
2018-03-07T08:43:18.027Z,98631.60
2018-03-07T08:45:44.085Z,98637.67
2018-03-07T08:48:10.126Z,98642.80
2018-03-07T08:50:36.547Z,98642.98
2018-03-07T08:53:02.562Z,98644.73
2018-03-07T08:55:28.617Z,98645.53
2018-03-07T08:57:54.924Z,98643.23
2018-03-07T09:00:20.983Z,98646.62
2018-03-07T09:02:47.058Z,98649.13
2018-03-07T09:05:13.136Z,98649.02
2018-03-07T09:07:39.220Z,98658.33
2018-03-07T09:10:05.267Z,98660.88
2018-03-07T09:12:31.303Z,98661.70
2018-03-07T09:14:57.389Z,98659.45
2018-03-07T09:17:23.414Z,98664.19
2018-03-07T09:19:49.609Z,98658.98
2018-03-07T09:22:15.679Z,98659.05
2018-03-07T09:24:41.768Z,98665.02
2018-03-07T09:27:07.793Z,98665.05
2018-03-07T09:29:33.854Z,98666.81
2018-03-07T09:31:59.967Z,98668.50
2018-03-07T09:34:26.007Z,98677.09
2018-03-07T09:36:52.057Z,98676.62
2018-03-07T09:39:18.242Z,98677.80
2018-03-07T09:41:44.323Z,98685.46
2018-03-07T09:44:10.363Z,98688.34
2018-03-07T09:46:36.463Z,98693.58
2018-03-07T09:49:02.532Z,98689.70
2018-03-07T09:51:28.563Z,98693.57
2018-03-07T09:53:54.638Z,98693.50
2018-03-07T09:56:20.802Z,98694.36
2018-03-07T09:58:46.834Z,98698.14
2018-03-07T10:01:13.092Z,98700.50
2018-03-07T10:03:39.164Z,98696.45
2018-03-07T10:06:05.277Z,98694.77
2018-03-07T10:08:31.383Z,98698.47
2018-03-07T10:10:57.721Z,98703.82
2018-03-07T10:13:23.841Z,98701.59
2018-03-07T10:15:49.884Z,98698.58
2018-03-07T10:18:16.112Z,98701.05
2018-03-07T10:20:42.159Z,98702.53
2018-03-07T10:23:08.303Z,98695.05
2018-03-07T10:25:34.544Z,98697.49
2018-03-07T10:28:00.623Z,98701.91
2018-03-07T10:30:26.692Z,98697.02
2018-03-07T10:32:53.032Z,98697.19
2018-03-07T10:35:19.108Z,98704.48
2018-03-07T10:37:45.155Z,98702.76
2018-03-07T10:40:11.260Z,98707.36
2018-03-07T10:42:37.316Z,98709.48
2018-03-07T10:45:03.596Z,98711.45
2018-03-07T10:47:29.636Z,98713.64
2018-03-07T10:49:55.896Z,98714.98
2018-03-07T10:52:21.953Z,98716.67
2018-03-07T10:54:48.100Z,98717.34
2018-03-07T10:57:14.419Z,98717.66
2018-03-07T10:59:40.479Z,98720.28
2018-03-07T11:02:06.575Z,98728.77
2018-03-07T11:04:47.536Z,98721.31
2018-03-07T11:07:13.808Z,98717.27
2018-03-07T11:09:39.857Z,98729.94
2018-03-07T11:12:05.898Z,98720.51
2018-03-07T11:14:31.942Z,98717.13
2018-03-07T11:16:57.983Z,98714.66
2018-03-07T11:19:24.074Z,98715.02
2018-03-07T11:21:50.164Z,98720.90
2018-03-07T11:24:16.208Z,98722.30
2018-03-07T11:26:42.318Z,98709.96
2018-03-07T11:29:08.366Z,98709.14
2018-03-07T11:31:34.420Z,98709.96
2018-03-07T11:34:00.454Z,98712.13
2018-03-07T11:36:26.514Z,98717.31
2018-03-07T11:38:52.564Z,98708.92
2018-03-07T11:41:18.613Z,98714.33
2018-03-07T11:43:44.702Z,98714.29
2018-03-07T11:46:10.812Z,98709.34
2018-03-07T11:48:36.992Z,98715.19
2018-03-07T11:51:03.040Z,98708.06
2018-03-07T11:53:29.124Z,98708.56
2018-03-07T11:55:55.557Z,98707.22
2018-03-07T11:58:21.615Z,98710.55
2018-03-07T12:00:47.657Z,98714.31
2018-03-07T12:03:13.740Z,98709.50
2018-03-07T12:05:39.819Z,98707.81
2018-03-07T12:08:05.901Z,98706.08
2018-03-07T12:10:32.014Z,98700.37
2018-03-07T12:12:58.082Z,98703.27
2018-03-07T12:15:24.194Z,98711.10
2018-03-07T12:17:50.252Z,98705.28
2018-03-07T12:20:16.325Z,98699.17
2018-03-07T12:22:42.464Z,98705.24
2018-03-07T12:25:08.561Z,98703.31
2018-03-07T12:27:34.632Z,98701.33
2018-03-07T12:30:00.957Z,98700.80
2018-03-07T12:32:26.996Z,98700.61
2018-03-07T12:34:53.125Z,98695.11
2018-03-07T12:37:19.170Z,98699.55
2018-03-07T12:39:45.225Z,98703.20
2018-03-07T12:42:11.310Z,98699.52
2018-03-07T12:44:37.351Z,98697.56
2018-03-07T12:47:03.474Z,98702.89
2018-03-07T12:49:29.599Z,98698.36
2018-03-07T12:51:55.684Z,98702.16
2018-03-07T12:54:21.766Z,98699.47
2018-03-07T12:56:47.834Z,98695.98
2018-03-07T12:59:13.933Z,98695.27
2018-03-07T13:01:40.012Z,98699.07
2018-03-07T13:04:06.083Z,98699.47
2018-03-07T13:06:32.370Z,98696.59
2018-03-07T13:08:58.680Z,98703.95
2018-03-07T13:11:24.722Z,98706.52
2018-03-07T13:13:50.778Z,98706.95
2018-03-07T13:16:17.142Z,98708.80
2018-03-07T13:18:43.185Z,98710.09
2018-03-07T13:21:09.324Z,98715.00
2018-03-07T13:23:35.347Z,98707.95
2018-03-07T13:26:01.436Z,98705.05
2018-03-07T13:28:27.553Z,98707.73
2018-03-07T13:30:53.656Z,98704.64
2018-03-07T13:33:19.724Z,98711.73
2018-03-07T13:35:45.755Z,98706.33
2018-03-07T13:38:11.885Z,98710.51
2018-03-07T13:40:37.957Z,98712.29
2018-03-07T13:43:04.697Z,98713.05
2018-03-07T13:45:30.742Z,98712.55
2018-03-07T13:47:56.765Z,98716.37
2018-03-07T13:50:22.876Z,98720.77
2018-03-07T13:53:03.804Z,98722.44
2018-03-07T13:55:29.871Z,98719.03
2018-03-07T13:57:55.971Z,98724.39
2018-03-07T14:00:22.049Z,98726.45
2018-03-07T14:02:48.381Z,98723.53
2018-03-07T14:05:14.530Z,98727.05
2018-03-07T14:07:41.322Z,98732.11
2018-03-07T14:10:07.370Z,98733.02
2018-03-07T14:12:33.633Z,98730.02
2018-03-07T14:14:59.704Z,98738.58
2018-03-07T14:17:25.802Z,98744.12
2018-03-07T14:19:51.829Z,98734.41
2018-03-07T14:22:17.886Z,98741.05
2018-03-07T14:24:44.174Z,98733.72
2018-03-07T14:27:10.244Z,98735.66
2018-03-07T14:29:36.336Z,98738.05
2018-03-07T14:32:02.404Z,98736.02
2018-03-07T14:34:28.503Z,98736.43
2018-03-07T14:36:54.583Z,98737.74
2018-03-07T14:39:20.683Z,98744.73
2018-03-07T14:41:46.753Z,98746.14
2018-03-07T14:44:12.798Z,98749.28
2018-03-07T14:46:38.864Z,98751.07
2018-03-07T14:49:05.159Z,98761.53
2018-03-07T14:51:31.259Z,98751.45
2018-03-07T14:53:57.325Z,98753.29
2018-03-07T14:56:23.377Z,98757.63
2018-03-07T14:58:49.497Z,98763.37
2018-03-07T15:01:15.721Z,98768.30
2018-03-07T15:03:41.819Z,98770.80
2018-03-07T15:06:08.709Z,98763.14
2018-03-07T15:08:34.944Z,98760.37
2018-03-07T15:11:01.130Z,98764.86
2018-03-07T15:13:27.176Z,98759.66
2018-03-07T15:15:53.440Z,98760.19
2018-03-07T15:18:19.504Z,98764.85
2018-03-07T15:20:45.539Z,98763.06
2018-03-07T15:23:11.695Z,98769.42
2018-03-07T15:25:37.822Z,98766.23
2018-03-07T15:28:03.906Z,98762.22
2018-03-07T15:30:29.996Z,98766.45
2018-03-07T15:32:56.088Z,98765.16
2018-03-07T15:35:22.139Z,98763.03
2018-03-07T15:37:48.203Z,98765.75
2018-03-07T15:40:14.255Z,98763.78
2018-03-07T15:42:40.315Z,98772.60
2018-03-07T15:45:06.382Z,98766.48
2018-03-07T15:47:32.465Z,98770.23
2018-03-07T15:49:58.604Z,98771.70
2018-03-07T15:52:24.630Z,98778.39
2018-03-07T15:54:50.699Z,98777.63
2018-03-07T15:57:16.719Z,98782.02
2018-03-07T15:59:43.020Z,98781.53
2018-03-07T16:02:09.214Z,98782.08
2018-03-07T16:04:35.389Z,98779.23
2018-03-07T16:07:01.874Z,98780.44
2018-03-07T16:09:28.046Z,98782.28
2018-03-07T16:11:54.135Z,98785.41
2018-03-07T16:14:20.233Z,98785.75
2018-03-07T16:16:46.367Z,98787.81
2018-03-07T16:19:12.431Z,98795.69
2018-03-07T16:21:38.529Z,98790.34
2018-03-07T16:24:04.615Z,98792.80
2018-03-07T16:26:31.562Z,98794.73
2018-03-07T16:28:57.667Z,98802.59
2018-03-07T16:31:23.800Z,98806.02
2018-03-07T16:33:49.944Z,98802.45
2018-03-07T16:36:16.064Z,98806.66
2018-03-07T16:38:42.606Z,98803.87
2018-03-07T16:41:08.688Z,98818.07
2018-03-07T16:43:34.765Z,98818.27
2018-03-07T16:46:00.906Z,98813.18
2018-03-07T16:48:26.938Z,98813.52
2018-03-07T16:50:53.348Z,98820.63
2018-03-07T16:53:19.397Z,98822.55
2018-03-07T16:55:45.452Z,98820.43
2018-03-07T16:58:11.762Z,98826.55
2018-03-07T17:00:37.878Z,98832.49
2018-03-07T17:03:04.011Z,98831.12
2018-03-07T17:05:30.065Z,98838.95
2018-03-07T17:07:56.163Z,98832.69
2018-03-07T17:10:22.228Z,98841.52
2018-03-07T17:12:48.342Z,98842.57
2018-03-07T17:15:14.466Z,98842.22
2018-03-07T17:17:40.502Z,98846.29
2018-03-07T17:20:06.589Z,98856.24
2018-03-07T17:22:32.658Z,98851.27
2018-03-07T17:24:58.686Z,98863.90
2018-03-07T17:27:24.816Z,98864.45
2018-03-07T17:29:50.890Z,98868.23
2018-03-07T17:32:16.973Z,98873.20
2018-03-07T17:34:43.200Z,98873.02
2018-03-07T17:37:09.377Z,98880.58
2018-03-07T17:39:35.451Z,98878.41
2018-03-07T17:42:01.583Z,98884.08
2018-03-07T17:44:27.652Z,98888.49
2018-03-07T17:46:53.896Z,98890.97
2018-03-07T17:49:19.948Z,98895.77
2018-03-07T17:51:46.030Z,98895.30
2018-03-07T17:54:12.149Z,98902.30
2018-03-07T17:56:38.512Z,98905.05
2018-03-07T17:59:05.132Z,98912.20
2018-03-07T18:01:31.302Z,98906.81
2018-03-07T18:03:57.420Z,98902.75
2018-03-07T18:06:23.575Z,98906.91
2018-03-07T18:08:49.658Z,98908.92
2018-03-07T18:11:15.924Z,98912.09
2018-03-07T18:13:42.029Z,98919.19
2018-03-07T18:16:08.249Z,98922.92
2018-03-07T18:18:34.394Z,98925.00
2018-03-07T18:21:00.459Z,98923.34
2018-03-07T18:23:42.267Z,98926.03
2018-03-07T18:26:08.762Z,98926.50
2018-03-07T18:28:34.903Z,98917.33
2018-03-07T18:31:01.007Z,98920.35
2018-03-07T18:33:27.114Z,98931.30
2018-03-07T18:35:53.398Z,98941.44
2018-03-07T18:38:19.518Z,98940.28
2018-03-07T18:40:45.653Z,98935.20
2018-03-07T18:43:11.907Z,98941.01
2018-03-07T18:45:38.312Z,98944.16
2018-03-07T18:48:04.522Z,98937.05
2018-03-07T18:50:30.578Z,98941.91
2018-03-07T18:52:56.857Z,98932.95
2018-03-07T18:55:23.015Z,98939.02
2018-03-07T18:57:49.196Z,98941.98
2018-03-07T19:00:15.279Z,98946.13
2018-03-07T19:02:41.353Z,98946.13
2018-03-07T19:05:07.721Z,98952.11
2018-03-07T19:07:33.800Z,98949.55
2018-03-07T19:09:59.965Z,98960.34
2018-03-07T19:12:26.052Z,98953.12
2018-03-07T19:14:52.254Z,98957.04
2018-03-07T19:17:18.425Z,98957.44
2018-03-07T19:19:45.209Z,98957.87
2018-03-07T19:22:11.415Z,98958.67
2018-03-07T19:24:37.538Z,98962.13
2018-03-07T19:27:04.016Z,98961.73
2018-03-07T19:29:31.398Z,98948.73
2018-03-07T19:31:57.542Z,98953.86
2018-03-07T19:34:23.835Z,98954.33
2018-03-07T19:36:50.584Z,98956.28
2018-03-07T19:39:16.825Z,98953.09
2018-03-07T19:41:42.922Z,98950.91
2018-03-07T19:44:09.030Z,98952.30
2018-03-07T19:46:35.427Z,98953.52
2018-03-07T19:49:01.505Z,98959.86
2018-03-07T19:51:27.603Z,98957.99
2018-03-07T19:53:53.899Z,98957.41
2018-03-07T19:56:20.059Z,98966.16
2018-03-07T19:58:46.167Z,98967.48
2018-03-07T20:01:12.297Z,98976.70
2018-03-07T20:03:38.476Z,98980.44
2018-03-07T20:06:04.584Z,98981.17
2018-03-07T20:08:30.744Z,98974.42
2018-03-07T20:10:57.306Z,98982.55
2018-03-07T20:13:23.433Z,98979.59
2018-03-07T20:15:49.602Z,98980.91
2018-03-07T20:18:15.835Z,98977.70
2018-03-07T20:20:41.879Z,98981.13
2018-03-07T20:23:08.230Z,98977.16
2018-03-07T20:25:34.462Z,98984.08
2018-03-07T20:28:00.822Z,98991.44
2018-03-07T20:30:26.936Z,98985.32
2018-03-07T20:32:53.063Z,98986.21
2018-03-07T20:35:19.475Z,98985.67
2018-03-07T20:37:45.554Z,98985.20
2018-03-07T20:40:11.770Z,98984.38
2018-03-07T20:42:37.889Z,98992.77
2018-03-07T20:45:04.032Z,98991.30
2018-03-07T20:47:30.109Z,98987.80
2018-03-07T20:49:56.415Z,98988.63
2018-03-07T20:52:22.678Z,98985.53
2018-03-07T20:54:48.791Z,98993.23
2018-03-07T20:57:14.928Z,98993.72
2018-03-07T20:59:41.106Z,98995.42
2018-03-07T21:02:07.202Z,98995.87
2018-03-07T21:04:33.248Z,99001.45
2018-03-07T21:06:59.362Z,99002.66
2018-03-07T21:09:26.005Z,99006.86
2018-03-07T21:11:52.095Z,99005.44
2018-03-07T21:14:19.213Z,98999.28
2018-03-07T21:16:45.349Z,99004.86
2018-03-07T21:19:11.439Z,99006.09
2018-03-07T21:21:37.575Z,99009.45
2018-03-07T21:24:03.605Z,99002.59
2018-03-07T21:26:29.738Z,99006.50
2018-03-07T21:28:56.570Z,99003.08
2018-03-07T21:31:22.735Z,99006.09
2018-03-07T21:33:48.863Z,99000.86
2018-03-07T21:36:14.995Z,98998.36
2018-03-07T21:38:41.277Z,98997.16
2018-03-07T21:41:07.392Z,98998.94
2018-03-07T21:43:33.655Z,98994.14
2018-03-07T21:45:59.735Z,98992.27
2018-03-07T21:48:26.797Z,99000.09
2018-03-07T21:50:52.846Z,99004.80
2018-03-07T21:53:19.377Z,98999.53
2018-03-07T21:55:45.498Z,99000.36
2018-03-07T21:58:11.679Z,98999.53
2018-03-07T22:00:37.798Z,98995.25
2018-03-07T22:03:03.872Z,98993.00
2018-03-07T22:05:29.940Z,98992.91
2018-03-07T22:07:56.024Z,98989.36
2018-03-07T22:10:22.103Z,98989.45
2018-03-07T22:12:48.167Z,98993.31
2018-03-07T22:15:14.265Z,98987.70
2018-03-07T22:17:40.336Z,98993.28
2018-03-07T22:20:06.385Z,98992.45
2018-03-07T22:22:32.426Z,98987.70
2018-03-07T22:24:58.502Z,98990.69
2018-03-07T22:27:24.711Z,98980.64
2018-03-07T22:29:50.777Z,98988.47
2018-03-07T22:32:16.883Z,98994.72
2018-03-07T22:34:42.943Z,99001.30
2018-03-07T22:37:09.033Z,98999.41
2018-03-07T22:39:35.128Z,99002.86
2018-03-07T22:42:01.415Z,99002.86
2018-03-07T22:44:27.489Z,98999.95
2018-03-07T22:46:53.573Z,98994.93
2018-03-07T22:49:19.663Z,99001.05
2018-03-07T22:51:45.744Z,98999.89
2018-03-07T22:54:11.831Z,99005.17
2018-03-07T22:56:37.906Z,98999.98
2018-03-07T22:59:03.950Z,99002.05
2018-03-07T23:01:30.018Z,99005.90
2018-03-07T23:03:56.117Z,99007.48
2018-03-07T23:06:22.272Z,99003.06
2018-03-07T23:08:48.316Z,99008.15
2018-03-07T23:11:14.408Z,99009.87
2018-03-07T23:13:40.477Z,99009.47
2018-03-07T23:16:06.553Z,99006.05
2018-03-07T23:18:32.620Z,99010.77
2018-03-07T23:20:58.831Z,99014.24
2018-03-07T23:23:24.895Z,99018.81
2018-03-07T23:25:50.940Z,99025.63
2018-03-07T23:28:17.531Z,99016.03
2018-03-07T23:30:43.592Z,99027.21
2018-03-07T23:33:09.654Z,99025.40
2018-03-07T23:35:35.726Z,99026.03
2018-03-07T23:38:01.903Z,99030.34
2018-03-07T23:40:27.967Z,99029.33
2018-03-07T23:42:54.056Z,99030.94
2018-03-07T23:45:20.131Z,99033.03
2018-03-07T23:47:46.177Z,99030.81
2018-03-07T23:50:12.444Z,99040.13
2018-03-07T23:52:38.466Z,99034.91
2018-03-07T23:55:04.524Z,99040.34
2018-03-07T23:57:30.580Z,99044.59
2018-03-07T23:59:56.641Z,99047.86
